Terminal Aerodrome Forecast
Issued by NWS

Current Version | Previous Version | Graphics & Text | Print | Product List | Glossary On
Versions: 1 2 3 4 5 6 7 8 9 10 11 12 13 14 15 16 17 18 19 20 21 22 23 24 25 26
000
FTUS41 KRLX 090600 AAA
TAFCKB
TAF AMD
KCKB 090639Z 0907/1006 20004KT P6SM VCTS FEW005 BKN025CB OVC050
      TEMPO 0907/0911 3SM -SHRA BKN022
     FM091400 26006KT 6SM BR BKN035
     FM091800 24009KT P6SM BKN045
     FM092000 25009KT P6SM SCT045=

USA.gov is the U.S. government's official web portal to all federal, state and local government web resources and services.